Time;durP1;ratioP1;P1;durP2;ratioP2;P2;SDS_P1;SDS_P2;PMS_P1;PMS_P2;Temp;Humidity;BMP_temperature;BMP_pressure;BME280_temperature;BME280_humidity;BME280_pressure;Samples;Min_cycle;Max_cycle;Signal;HPM_P1;HPM_P2
2022/06/24 00:00:10;;;;;;;4.07;1.58;;;23.90;58.70;;;;;;4978551;28;20045;-69
2022/06/24 00:02:37;;;;;;;4.97;1.70;;;23.80;58.40;;;;;;4978603;28;20411;-69
2022/06/24 00:05:07;;;;;;;5.75;1.85;;;23.80;57.80;;;;;;4978736;28;20053;-69
2022/06/24 00:07:47;;;;;;;4.70;2.05;;;23.80;58.00;;;;;;4978484;28;20034;-69
2022/06/24 00:10:22;;;;;;;5.03;1.85;;;23.80;57.60;;;;;;4978455;28;20042;-69
2022/06/24 00:12:49;;;;;;;5.55;1.83;;;23.80;58.00;;;;;;4962296;28;20042;-69
2022/06/24 00:15:40;;;;;;;3.72;1.70;;;23.70;58.80;;;;;;4978554;28;20088;-70
2022/06/24 00:18:15;;;;;;;2.30;1.40;;;23.70;60.10;;;;;;4978857;28;20054;-69
2022/06/24 00:20:46;;;;;;;2.75;1.65;;;23.70;60.50;;;;;;4978309;28;20038;-69
2022/06/24 00:23:14;;;;;;;4.75;1.60;;;23.60;60.80;;;;;;4978577;28;20042;-69
2022/06/24 00:25:41;;;;;;;5.80;1.60;;;23.50;60.90;;;;;;4978347;28;20042;-69
2022/06/24 00:28:11;;;;;;;5.03;1.85;;;23.50;62.20;;;;;;4962240;28;20034;-69
2022/06/24 00:30:54;;;;;;;3.45;1.80;;;23.40;62.40;;;;;;4978526;28;20057;-69
2022/06/24 00:33:24;;;;;;;3.13;1.80;;;23.40;62.60;;;;;;4978062;28;20101;-69
2022/06/24 00:36:01;;;;;;;3.45;1.67;;;23.30;63.80;;;;;;4978114;28;20407;-69
2022/06/24 00:38:33;;;;;;;5.18;1.60;;;23.20;65.00;;;;;;4978222;28;20046;-69
2022/06/24 00:41:10;;;;;;;4.00;1.65;;;23.20;65.10;;;;;;4977939;28;20073;-69
2022/06/24 00:43:41;;;;;;;4.75;1.90;;;23.20;66.90;;;;;;4978107;28;20479;-69
2022/06/24 00:46:38;;;;;;;4.95;1.83;;;23.10;68.90;;;;;;4977835;28;20034;-69
2022/06/24 00:49:07;;;;;;;5.60;1.73;;;23.00;71.50;;;;;;4958271;28;20166;-69
2022/06/24 00:51:34;;;;;;;4.20;1.60;;;22.90;70.90;;;;;;4977678;28;20499;-69
2022/06/24 00:54:08;;;;;;;4.30;1.85;;;22.90;72.40;;;;;;4977869;28;20041;-69
2022/06/24 00:56:34;;;;;;;5.18;1.95;;;22.90;73.00;;;;;;4961614;28;20042;-69
2022/06/24 00:59:02;;;;;;;5.45;2.00;;;22.80;72.60;;;;;;4977774;28;20053;-69
2022/06/24 01:01:35;;;;;;;5.28;1.65;;;22.80;71.50;;;;;;4977584;28;20077;-69
2022/06/24 01:04:02;;;;;;;4.93;2.00;;;22.70;72.70;;;;;;4976642;28;20414;-69
2022/06/24 01:06:29;;;;;;;4.45;1.70;;;22.70;73.20;;;;;;4977548;28;20052;-69
2022/06/24 01:08:55;;;;;;;6.85;1.88;;;22.70;74.40;;;;;;4977852;28;20053;-69
2022/06/24 01:11:29;;;;;;;4.68;1.67;;;22.60;75.20;;;;;;4961454;28;20088;-69
2022/06/24 01:13:55;;;;;;;6.32;1.88;;;22.60;74.10;;;;;;4977428;28;20039;-69
2022/06/24 01:16:25;;;;;;;3.97;1.75;;;22.50;74.30;;;;;;4961220;28;20034;-69
2022/06/24 01:18:55;;;;;;;6.82;1.92;;;22.50;74.20;;;;;;4977330;28;20078;-69
2022/06/24 01:21:33;;;;;;;3.75;1.73;;;22.50;74.60;;;;;;4977722;28;20139;-69
2022/06/24 01:24:15;;;;;;;4.45;1.80;;;22.50;78.60;;;;;;4977127;28;20042;-69
2022/06/24 01:26:42;;;;;;;4.32;1.77;;;22.40;78.80;;;;;;4977055;28;20046;-69
2022/06/24 01:29:08;;;;;;;3.97;1.63;;;22.20;80.00;;;;;;4960887;28;20127;-69
2022/06/24 01:31:35;;;;;;;4.35;1.88;;;22.20;81.30;;;;;;4976967;28;20074;-69
2022/06/24 01:34:01;;;;;;;5.85;1.98;;;22.10;81.70;;;;;;4977097;28;20042;-69
2022/06/24 01:36:26;;;;;;;2.55;1.73;;;22.10;80.40;;;;;;4976901;28;20039;-69
2022/06/24 01:38:53;;;;;;;3.83;1.80;;;22.00;82.50;;;;;;4976991;28;20034;-69
2022/06/24 01:41:19;;;;;;;3.42;2.00;;;22.00;82.50;;;;;;4976801;28;20125;-69
2022/06/24 01:43:45;;;;;;;3.00;1.60;;;21.90;83.30;;;;;;4960883;28;20054;-69
2022/06/24 01:46:11;;;;;;;3.35;1.73;;;21.90;83.50;;;;;;4960951;28;20042;-69
2022/06/24 01:48:37;;;;;;;3.35;2.00;;;21.80;84.40;;;;;;4960615;28;20078;-69
2022/06/24 01:51:04;;;;;;;4.30;1.80;;;21.80;82.50;;;;;;4977457;28;20046;-71
2022/06/24 01:53:29;;;;;;;4.55;1.90;;;21.80;82.40;;;;;;4976614;28;20490;-71
2022/06/24 01:55:55;;;;;;;4.38;2.22;;;21.80;82.80;;;;;;4976871;28;20052;-71
2022/06/24 01:58:20;;;;;;;5.55;2.00;;;21.80;82.50;;;;;;4976577;28;20034;-71
2022/06/24 02:00:46;;;;;;;5.05;1.92;;;21.80;82.10;;;;;;4960539;28;20089;-71
2022/06/24 02:03:11;;;;;;;4.35;1.90;;;21.70;82.20;;;;;;4976905;28;20050;-71
2022/06/24 02:05:39;;;;;;;4.90;2.00;;;21.70;82.10;;;;;;4976439;28;20495;-71
2022/06/24 02:08:04;;;;;;;4.03;2.03;;;21.70;82.90;;;;;;4976435;28;20042;-71
2022/06/24 02:13:26;;;;;;;5.13;1.80;;;21.70;87.30;;;;;;4976378;28;20038;-71
2022/06/24 02:16:03;;;;;;;6.05;1.77;;;21.60;88.50;;;;;;4976055;28;20120;-71
2022/06/24 02:18:29;;;;;;;6.35;2.05;;;21.60;90.10;;;;;;4960090;28;20042;-71
2022/06/24 02:20:56;;;;;;;5.53;2.58;;;21.50;91.00;;;;;;4976639;28;20392;-71
2022/06/24 02:23:22;;;;;;;6.00;2.10;;;21.50;91.90;;;;;;4960392;28;20042;-71
2022/06/24 02:25:49;;;;;;;2.30;1.70;;;21.40;94.10;;;;;;4976136;28;20043;-71
2022/06/24 02:28:15;;;;;;;6.57;1.83;;;21.40;94.40;;;;;;4976094;28;20414;-71
2022/06/24 02:30:42;;;;;;;7.93;2.10;;;21.40;95.20;;;;;;4976205;28;20121;-71
2022/06/24 02:33:08;;;;;;;4.30;1.60;;;21.40;95.90;;;;;;4976424;28;20107;-71
2022/06/24 02:35:35;;;;;;;5.50;1.85;;;21.40;95.50;;;;;;4976395;28;20042;-71
2022/06/24 02:38:00;;;;;;;3.17;1.80;;;21.40;94.70;;;;;;4976139;28;20521;-71
2022/06/24 02:43:17;;;;;;;3.55;1.90;;;21.30;99.70;;;;;;4976107;28;20047;-71
2022/06/24 02:45:47;;;;;;;2.40;1.87;;;21.30;99.80;;;;;;4976243;28;20039;-71
2022/06/24 02:48:14;;;;;;;8.25;2.50;;;21.30;98.10;;;;;;4976118;28;20285;-71
2022/06/24 02:50:44;;;;;;;4.13;1.67;;;21.30;96.30;;;;;;4975934;28;20077;-71
2022/06/24 02:53:10;;;;;;;5.82;2.10;;;21.30;95.50;;;;;;4976342;28;20042;-71
2022/06/24 02:55:37;;;;;;;4.97;2.05;;;21.40;94.80;;;;;;4976290;28;20046;-71
2022/06/24 02:58:04;;;;;;;4.47;2.05;;;21.40;94.70;;;;;;4976262;28;20074;-71
2022/06/24 03:00:30;;;;;;;3.90;1.75;;;21.40;94.80;;;;;;4975877;28;20042;-71
2022/06/24 03:02:55;;;;;;;5.38;2.05;;;21.30;93.60;;;;;;4975990;28;20049;-71
2022/06/24 03:05:21;;;;;;;5.07;1.98;;;21.30;93.20;;;;;;4959874;28;20046;-71
2022/06/24 03:07:47;;;;;;;3.08;1.60;;;21.40;92.70;;;;;;4975932;28;20040;-71
2022/06/24 03:10:12;;;;;;;4.95;2.42;;;21.40;92.80;;;;;;4976037;28;20042;-71
2022/06/24 03:12:38;;;;;;;4.45;2.00;;;21.30;97.10;;;;;;4976160;28;20046;-71
2022/06/24 03:15:04;;;;;;;5.40;1.98;;;21.20;99.40;;;;;;4975914;28;20450;-71
2022/06/24 03:17:30;;;;;;;6.43;1.80;;;21.20;99.90;;;;;;4975858;28;20038;-71
2022/06/24 03:19:55;;;;;;;4.05;2.03;;;21.10;99.50;;;;;;4959690;28;20046;-71
2022/06/24 03:22:21;;;;;;;3.10;1.77;;;21.10;99.90;;;;;;4976079;28;20057;-71
2022/06/24 03:24:46;;;;;;;4.10;1.95;;;21.00;99.90;;;;;;4975921;28;20181;-71
2022/06/24 03:27:12;;;;;;;6.55;2.50;;;21.00;99.90;;;;;;4977038;28;20038;-71
2022/06/24 03:29:38;;;;;;;4.28;2.25;;;21.00;99.90;;;;;;4979377;28;20410;-71
2022/06/24 03:32:04;;;;;;;5.93;2.47;;;21.00;99.90;;;;;;4963069;28;20047;-71
2022/06/24 03:34:29;;;;;;;4.78;2.05;;;20.90;99.70;;;;;;4979199;28;20031;-71
2022/06/24 03:36:55;;;;;;;4.00;2.00;;;21.00;99.70;;;;;;4979084;28;20113;-71
2022/06/24 03:39:20;;;;;;;3.10;2.25;;;21.00;99.90;;;;;;4962906;28;20042;-71
2022/06/24 03:41:46;;;;;;;4.55;2.03;;;20.90;99.90;;;;;;4979196;28;20047;-71
2022/06/24 03:44:12;;;;;;;3.50;2.22;;;20.80;99.90;;;;;;4979145;28;20384;-71
2022/06/24 03:46:37;;;;;;;3.63;1.90;;;20.90;99.90;;;;;;4978824;28;20129;-71
2022/06/24 03:49:03;;;;;;;3.83;2.20;;;20.90;99.90;;;;;;4978858;28;20046;-71
2022/06/24 03:51:28;;;;;;;8.10;2.13;;;20.90;99.90;;;;;;4978823;28;20133;-71
2022/06/24 03:53:54;;;;;;;6.82;2.20;;;20.90;99.90;;;;;;4978847;28;20038;-71
2022/06/24 03:56:20;;;;;;;3.92;2.00;;;20.90;99.90;;;;;;4979152;28;20042;-71
2022/06/24 03:58:45;;;;;;;6.25;2.15;;;20.90;99.90;;;;;;4978848;28;20056;-71
2022/06/24 04:01:11;;;;;;;4.93;1.92;;;20.90;99.90;;;;;;4978983;28;20038;-71
2022/06/24 04:03:36;;;;;;;7.43;2.35;;;20.90;99.90;;;;;;4978689;28;20077;-71
2022/06/24 04:06:02;;;;;;;3.40;1.90;;;20.80;99.90;;;;;;4962578;28;20034;-71
2022/06/24 04:08:27;;;;;;;3.58;2.25;;;20.70;99.90;;;;;;4962421;28;20470;-71
2022/06/24 04:10:53;;;;;;;5.78;2.60;;;20.70;99.90;;;;;;4978476;28;20084;-71
2022/06/24 04:13:18;;;;;;;3.92;2.33;;;20.70;99.90;;;;;;4978449;28;20038;-71
2022/06/24 04:15:46;;;;;;;3.58;2.38;;;20.70;99.90;;;;;;4978413;28;20057;-71
2022/06/24 04:18:12;;;;;;;5.00;2.50;;;20.60;99.90;;;;;;4962438;28;20042;-71
2022/06/24 04:20:38;;;;;;;4.55;2.25;;;20.60;99.90;;;;;;4978728;28;20104;-71
2022/06/24 04:23:03;;;;;;;10.90;2.58;;;20.50;99.90;;;;;;4978546;28;20454;-71
2022/06/24 04:25:29;;;;;;;2.97;2.00;;;20.60;99.90;;;;;;4978171;28;20042;-71
2022/06/24 04:27:54;;;;;;;5.07;2.40;;;20.70;99.90;;;;;;4978424;28;20065;-71
2022/06/24 04:30:20;;;;;;;11.38;2.55;;;20.70;99.90;;;;;;4978080;28;20514;-71
2022/06/24 04:32:46;;;;;;;4.47;2.20;;;20.80;99.90;;;;;;4978337;28;20042;-71
2022/06/24 04:35:11;;;;;;;6.90;2.22;;;20.80;99.90;;;;;;4978155;28;20491;-71
2022/06/24 04:37:39;;;;;;;7.80;2.70;;;20.90;99.90;;;;;;4977717;28;20034;-71
2022/06/24 04:40:09;;;;;;;7.63;2.90;;;20.90;99.90;;;;;;4978293;28;20479;-71
2022/06/24 04:42:35;;;;;;;8.88;4.53;;;21.00;99.90;;;;;;4978606;28;20073;-71
2022/06/24 04:45:01;;;;;;;8.88;5.93;;;21.00;99.90;;;;;;4977786;28;20046;-71
2022/06/24 04:47:27;;;;;;;9.73;6.25;;;21.10;99.90;;;;;;4977792;28;20046;-71
2022/06/24 04:49:52;;;;;;;13.02;7.60;;;21.20;99.90;;;;;;4977671;28;20046;-71
2022/06/24 04:52:18;;;;;;;12.48;7.25;;;21.20;99.90;;;;;;4977884;28;20113;-71
2022/06/24 04:54:44;;;;;;;8.52;5.85;;;21.30;99.90;;;;;;4978170;28;20034;-71
2022/06/24 04:57:11;;;;;;;11.55;6.30;;;21.30;99.90;;;;;;4977814;28;20076;-71
2022/06/24 04:59:37;;;;;;;10.90;5.03;;;21.40;99.90;;;;;;4977706;28;20477;-71
2022/06/24 05:02:03;;;;;;;9.00;4.53;;;21.40;99.90;;;;;;4977553;28;20129;-71
2022/06/24 05:04:28;;;;;;;7.72;4.63;;;21.40;99.90;;;;;;4977452;28;20081;-71
2022/06/24 05:06:54;;;;;;;8.70;4.65;;;21.50;99.90;;;;;;4977547;28;20052;-71
2022/06/24 05:09:20;;;;;;;7.25;4.70;;;21.40;99.90;;;;;;4977435;28;20038;-71
2022/06/24 05:11:46;;;;;;;8.27;4.57;;;21.40;99.90;;;;;;4961475;28;20084;-71
2022/06/24 05:14:13;;;;;;;8.43;4.38;;;21.40;99.90;;;;;;4977302;28;20038;-71
2022/06/24 05:16:40;;;;;;;8.70;4.60;;;21.40;99.90;;;;;;4977423;28;20042;-71
2022/06/24 05:19:07;;;;;;;7.72;4.65;;;21.40;99.90;;;;;;4977355;28;20042;-71
2022/06/24 05:21:33;;;;;;;7.70;4.45;;;21.40;99.90;;;;;;4977116;28;20042;-71
2022/06/24 05:23:59;;;;;;;9.98;4.53;;;21.40;99.90;;;;;;4977097;28;20045;-71
2022/06/24 05:26:25;;;;;;;5.82;3.95;;;21.40;99.90;;;;;;4977011;28;20148;-71
2022/06/24 05:28:50;;;;;;;9.93;5.35;;;21.40;99.90;;;;;;4977408;28;20487;-71
2022/06/24 05:31:16;;;;;;;6.32;4.60;;;21.40;99.90;;;;;;4977193;28;20438;-71
2022/06/24 05:33:42;;;;;;;7.15;4.90;;;21.50;99.90;;;;;;4976971;28;20050;-71
2022/06/24 05:36:07;;;;;;;6.20;4.28;;;21.50;99.90;;;;;;4976886;28;20045;-71
2022/06/24 05:38:33;;;;;;;8.30;4.60;;;21.50;99.90;;;;;;4976766;28;20494;-71
2022/06/24 05:40:59;;;;;;;7.43;4.57;;;21.40;99.90;;;;;;4977113;28;20052;-71
2022/06/24 05:43:24;;;;;;;6.45;4.18;;;21.40;99.90;;;;;;4977091;28;20045;-71
2022/06/24 05:45:50;;;;;;;7.68;4.38;;;21.30;99.90;;;;;;4960725;28;20104;-71
2022/06/24 05:48:16;;;;;;;7.55;3.90;;;21.30;99.90;;;;;;4976820;28;20125;-71
2022/06/24 05:50:42;;;;;;;7.00;4.20;;;21.20;99.90;;;;;;4976320;28;20066;-71
2022/06/24 05:55:58;;;;;;;11.75;4.05;;;21.20;99.90;;;;;;4976558;28;20479;-71
2022/06/24 05:58:25;;;;;;;9.27;4.37;;;21.20;99.90;;;;;;4976769;28;20448;-72
2022/06/24 06:00:51;;;;;;;9.88;4.40;;;21.20;99.90;;;;;;4960506;28;20038;-71
2022/06/24 06:03:17;;;;;;;8.30;4.05;;;21.20;99.90;;;;;;4960383;28;20046;-71
2022/06/24 06:05:42;;;;;;;6.47;4.20;;;21.20;99.90;;;;;;4976375;28;20096;-71
2022/06/24 06:08:08;;;;;;;6.68;4.25;;;21.20;99.90;;;;;;4994276;28;20042;-71
2022/06/24 06:10:37;;;;;;;6.45;3.80;;;21.20;99.90;;;;;;4976563;28;20081;-71
2022/06/24 06:13:03;;;;;;;7.03;3.55;;;21.20;99.90;;;;;;4976300;28;20038;-71
2022/06/24 06:15:30;;;;;;;6.88;3.38;;;21.20;99.90;;;;;;4976469;28;20050;-72
2022/06/24 06:17:56;;;;;;;8.10;3.50;;;21.30;99.90;;;;;;4976251;28;20046;-72
2022/06/24 06:20:21;;;;;;;6.82;3.75;;;21.30;99.90;;;;;;4976463;28;20165;-72
2022/06/24 06:22:47;;;;;;;4.32;3.20;;;21.30;99.90;;;;;;4976291;28;20042;-71
2022/06/24 06:25:15;;;;;;;7.45;3.33;;;21.30;99.90;;;;;;4976494;28;20100;-71
2022/06/24 06:27:41;;;;;;;4.50;2.95;;;21.30;99.90;;;;;;4976264;28;20050;-71
2022/06/24 06:30:07;;;;;;;6.75;3.60;;;21.30;99.90;;;;;;4976181;28;20046;-71
2022/06/24 06:32:32;;;;;;;6.75;3.40;;;21.40;99.90;;;;;;4976169;28;20039;-71
2022/06/24 06:34:58;;;;;;;4.10;2.60;;;21.40;99.90;;;;;;4976423;28;20056;-71
2022/06/24 06:37:24;;;;;;;3.17;2.38;;;21.40;99.90;;;;;;4976217;28;20470;-71
2022/06/24 06:39:49;;;;;;;4.88;2.58;;;21.40;99.90;;;;;;4976293;28;20054;-71
2022/06/24 06:42:15;;;;;;;3.58;2.50;;;21.30;99.90;;;;;;4960278;28;20038;-71
2022/06/24 06:44:40;;;;;;;3.85;2.42;;;21.40;99.90;;;;;;4976093;28;20038;-71
2022/06/24 06:47:06;;;;;;;5.88;2.28;;;21.30;99.90;;;;;;4976221;28;20042;-71
2022/06/24 06:49:32;;;;;;;4.03;2.25;;;21.20;99.90;;;;;;4975924;28;20038;-71
2022/06/24 06:52:02;;;;;;;4.85;2.40;;;21.20;99.90;;;;;;4960386;28;20464;-72
2022/06/24 06:54:27;;;;;;;3.30;2.40;;;21.30;99.90;;;;;;4959922;28;20528;-72
2022/06/24 06:56:53;;;;;;;7.53;3.00;;;21.20;99.90;;;;;;4976040;28;20125;-71
2022/06/24 06:59:18;;;;;;;4.80;2.63;;;21.20;99.90;;;;;;4976223;28;20038;-71
2022/06/24 07:01:44;;;;;;;4.82;2.63;;;21.20;99.90;;;;;;4977784;28;20125;-71
2022/06/24 07:04:09;;;;;;;4.90;2.92;;;21.20;99.90;;;;;;4979798;28;20057;-71
2022/06/24 07:06:38;;;;;;;4.05;2.65;;;21.20;99.90;;;;;;4979635;28;20034;-71
2022/06/24 07:09:04;;;;;;;6.35;3.00;;;21.20;99.90;;;;;;4979790;28;20040;-71
2022/06/24 07:11:29;;;;;;;3.95;2.80;;;21.20;99.90;;;;;;4979606;28;20121;-71
2022/06/24 07:13:55;;;;;;;7.80;3.15;;;21.20;99.90;;;;;;4997006;28;20065;-71
2022/06/24 07:16:21;;;;;;;4.80;2.80;;;21.10;99.90;;;;;;4979818;28;20122;-71
2022/06/24 07:18:46;;;;;;;5.75;3.08;;;21.10;99.90;;;;;;4979554;28;20457;-71
2022/06/24 07:21:15;;;;;;;4.50;3.17;;;21.10;99.90;;;;;;4979456;28;20065;-71
2022/06/24 07:23:41;;;;;;;4.90;2.97;;;21.10;99.90;;;;;;4979634;28;20053;-71
2022/06/24 07:26:07;;;;;;;4.50;2.78;;;21.10;99.90;;;;;;4979455;28;20069;-71
2022/06/24 07:28:37;;;;;;;5.68;3.30;;;21.10;99.90;;;;;;4979520;28;20039;-71
2022/06/24 07:31:14;;;;;;;8.20;3.45;;;21.10;99.90;;;;;;4963265;28;20129;-71
2022/06/24 07:33:39;;;;;;;8.75;4.03;;;21.10;99.90;;;;;;4979215;28;20043;-71
2022/06/24 07:36:05;;;;;;;7.60;3.28;;;21.10;99.90;;;;;;4979186;28;20153;-71
2022/06/24 07:38:30;;;;;;;5.95;3.70;;;21.10;99.90;;;;;;4979113;28;20073;-71
2022/06/24 07:40:56;;;;;;;7.28;3.45;;;21.10;99.90;;;;;;4979081;28;20049;-71
2022/06/24 07:43:21;;;;;;;5.38;3.60;;;21.10;99.90;;;;;;4978989;28;20050;-71
2022/06/24 07:45:47;;;;;;;7.55;3.40;;;21.10;99.90;;;;;;4978964;28;20053;-71
2022/06/24 07:48:12;;;;;;;6.72;3.67;;;21.10;99.90;;;;;;4962869;28;20045;-71
2022/06/24 07:50:38;;;;;;;8.30;3.70;;;21.00;99.90;;;;;;5003458;23;20039;-68
2022/06/24 07:53:04;;;;;;;6.63;3.50;;;21.00;99.90;;;;;;4979216;28;20045;-68
2022/06/24 07:58:13;;;;;;;6.68;3.67;;;21.00;99.90;;;;;;4979249;28;20042;-70
2022/06/24 08:00:39;;;;;;;5.25;3.90;;;20.90;99.90;;;;;;4978732;28;20494;-70
2022/06/24 08:03:05;;;;;;;6.53;4.43;;;20.90;99.90;;;;;;4978731;28;20464;-70
2022/06/24 08:05:31;;;;;;;8.45;4.13;;;20.90;99.90;;;;;;4978764;28;20066;-70
2022/06/24 08:07:56;;;;;;;6.88;4.18;;;21.00;99.90;;;;;;4962883;28;20414;-70
2022/06/24 08:10:22;;;;;;;6.22;4.65;;;20.90;99.90;;;;;;4962567;28;20533;-70
2022/06/24 08:12:48;;;;;;;6.57;4.05;;;20.90;99.90;;;;;;4978201;28;20070;-70
2022/06/24 08:15:16;;;;;;;6.82;4.03;;;20.80;99.90;;;;;;4978681;28;20049;-70
2022/06/24 08:17:42;;;;;;;10.00;4.28;;;20.80;99.90;;;;;;4962451;28;20034;-70
2022/06/24 08:20:08;;;;;;;5.53;4.25;;;20.80;99.90;;;;;;4978296;28;20125;-69
2022/06/24 08:22:34;;;;;;;5.35;4.07;;;20.80;99.90;;;;;;4978573;28;20045;-68
2022/06/24 08:25:01;;;;;;;8.18;4.40;;;20.80;99.90;;;;;;4978457;28;20532;-68
2022/06/24 08:27:26;;;;;;;7.63;4.60;;;20.80;99.90;;;;;;4962347;28;20030;-70
2022/06/24 08:29:52;;;;;;;6.25;4.72;;;20.90;99.90;;;;;;4962058;28;20457;-68
2022/06/24 08:32:18;;;;;;;6.05;4.40;;;20.90;99.90;;;;;;4962328;28;20042;-69
2022/06/24 08:34:43;;;;;;;7.95;4.35;;;21.00;99.90;;;;;;4962237;28;20502;-69
2022/06/24 08:37:09;;;;;;;7.28;4.40;;;21.00;99.90;;;;;;4978310;28;20045;-70
2022/06/24 08:39:35;;;;;;;8.77;4.82;;;21.00;99.90;;;;;;4978266;28;20042;-69
2022/06/24 08:42:02;;;;;;;10.40;4.93;;;21.00;99.90;;;;;;4978399;28;20037;-71
2022/06/24 08:44:28;;;;;;;8.23;5.57;;;21.00;99.90;;;;;;4977917;28;20045;-72
2022/06/24 08:46:54;;;;;;;6.82;4.95;;;21.00;99.90;;;;;;4961823;28;20043;-71
2022/06/24 08:49:20;;;;;;;7.80;6.10;;;21.00;99.90;;;;;;4961760;28;20498;-71
2022/06/24 08:51:47;;;;;;;8.38;6.15;;;21.10;99.90;;;;;;4978423;28;20376;-71
2022/06/24 08:54:16;;;;;;;9.57;6.18;;;21.10;99.90;;;;;;4962052;28;20038;-73
2022/06/24 08:56:42;;;;;;;11.88;6.10;;;21.10;99.90;;;;;;4961650;28;20049;-73
2022/06/24 08:59:07;;;;;;;7.32;5.40;;;21.10;99.90;;;;;;4977935;28;20042;-72
2022/06/24 09:01:39;;;;;;;6.68;5.30;;;21.10;99.90;;;;;;4961460;28;20046;-72
2022/06/24 09:04:04;;;;;;;8.32;6.20;;;21.10;99.90;;;;;;4961729;28;20081;-72
2022/06/24 09:06:37;;;;;;;7.65;5.65;;;21.00;99.90;;;;;;4977404;28;20074;-72
2022/06/24 09:09:03;;;;;;;7.47;5.22;;;21.00;99.90;;;;;;4961796;28;20042;-72
2022/06/24 09:11:37;;;;;;;9.45;4.82;;;21.00;99.90;;;;;;4977614;28;20479;-73
2022/06/24 09:14:03;;;;;;;10.05;6.00;;;21.00;99.90;;;;;;4977823;28;20038;-73
2022/06/24 09:16:28;;;;;;;7.10;5.32;;;21.00;99.90;;;;;;4977919;28;20076;-73
2022/06/24 09:18:57;;;;;;;8.85;6.13;;;21.00;99.90;;;;;;4977597;28;20046;-73
2022/06/24 09:21:32;;;;;;;8.90;5.97;;;21.00;99.90;;;;;;4977392;28;20050;-72
2022/06/24 09:24:05;;;;;;;9.60;5.90;;;21.00;99.90;;;;;;4960747;28;20042;-74
2022/06/24 09:26:36;;;;;;;7.15;4.85;;;21.00;99.90;;;;;;4976628;28;20499;-74
2022/06/24 09:29:07;;;;;;;7.97;5.43;;;20.90;99.90;;;;;;4977119;28;20042;-73
2022/06/24 09:31:34;;;;;;;7.07;4.88;;;20.80;99.90;;;;;;4977251;28;20050;-73
2022/06/24 09:34:12;;;;;;;6.70;4.50;;;20.80;99.90;;;;;;4976960;28;20039;-73
2022/06/24 09:36:40;;;;;;;8.20;4.50;;;20.80;99.90;;;;;;4977453;28;20502;-72
2022/06/24 09:39:08;;;;;;;7.60;4.25;;;20.60;99.90;;;;;;4977422;28;20077;-74
2022/06/24 09:41:55;;;;;;;7.55;4.47;;;20.60;99.90;;;;;;4960895;28;20042;-72
2022/06/24 09:44:21;;;;;;;9.25;4.95;;;20.50;99.90;;;;;;4976889;28;20053;-72
2022/06/24 09:47:00;;;;;;;7.10;4.93;;;20.40;99.90;;;;;;4977034;28;20042;-73
2022/06/24 09:49:26;;;;;;;7.57;4.88;;;20.40;99.90;;;;;;4976786;28;20038;-73
2022/06/24 09:51:51;;;;;;;9.63;4.78;;;20.40;99.90;;;;;;4976797;28;20045;-71
2022/06/24 09:54:18;;;;;;;9.95;5.20;;;20.30;99.90;;;;;;4976815;28;20054;-72
2022/06/24 09:56:47;;;;;;;11.07;5.00;;;20.30;99.90;;;;;;4960458;28;20038;-72
2022/06/24 10:02:02;;;;;;;7.70;4.13;;;20.20;99.90;;;;;;4976621;28;20425;-73
2022/06/24 10:04:28;;;;;;;8.07;4.25;;;20.10;99.90;;;;;;4976517;28;20046;-73
2022/06/24 10:06:56;;;;;;;6.35;4.05;;;20.00;99.90;;;;;;4976401;28;20043;-73
2022/06/24 10:09:31;;;;;;;4.95;3.90;;;19.90;99.90;;;;;;4976915;28;20034;-74
2022/06/24 10:11:57;;;;;;;4.85;3.20;;;19.80;99.90;;;;;;4960633;28;20512;-73
2022/06/24 10:14:25;;;;;;;6.40;3.55;;;19.70;99.90;;;;;;4960514;28;20038;-74
2022/06/24 10:16:51;;;;;;;6.40;3.22;;;19.60;99.90;;;;;;4976384;28;20532;-74
2022/06/24 10:19:19;;;;;;;5.25;2.95;;;19.60;99.90;;;;;;4976347;28;20038;-74
2022/06/24 10:21:46;;;;;;;6.65;2.70;;;19.50;99.90;;;;;;4976347;28;20112;-74
2022/06/24 10:24:13;;;;;;;6.03;2.58;;;19.50;99.90;;;;;;4960526;28;20046;-74
2022/06/24 10:26:42;;;;;;;7.50;3.13;;;19.40;99.90;;;;;;4959912;28;20046;-73
2022/06/24 10:29:08;;;;;;;6.28;3.00;;;19.30;99.90;;;;;;4976276;28;20065;-73
2022/06/24 10:31:42;;;;;;;5.88;2.38;;;19.30;99.90;;;;;;4976235;28;20042;-73
2022/06/24 10:34:25;;;;;;;7.30;2.78;;;19.30;99.90;;;;;;4976216;28;20557;-73
2022/06/24 10:36:58;;;;;;;;;;;19.30;99.90;;;;;;4962838;28;20038;-73
2022/06/24 10:39:26;;;;;;;4.10;2.13;;;19.20;99.90;;;;;;4980421;28;19979;-74
2022/06/24 10:42:00;;;;;;;4.07;2.08;;;19.10;99.90;;;;;;4980174;28;20053;-74
2022/06/24 10:44:31;;;;;;;5.95;2.25;;;19.20;99.90;;;;;;4980114;28;20383;-74
2022/06/24 10:47:18;;;;;;;5.90;2.25;;;19.20;99.90;;;;;;4980226;28;20042;-74
2022/06/24 10:49:59;;;;;;;5.32;2.55;;;19.20;99.90;;;;;;4964473;28;20414;-74
2022/06/24 10:52:56;;;;;;;4.57;2.40;;;19.20;99.90;;;;;;4980021;28;20100;-73
2022/06/24 10:55:23;;;;;;;6.43;2.22;;;19.20;99.90;;;;;;4964118;28;20506;-73
2022/06/24 10:57:49;;;;;;;3.58;2.10;;;19.20;99.90;;;;;;4964106;28;20503;-74
2022/06/24 11:00:19;;;;;;;5.85;2.20;;;19.20;99.90;;;;;;4963816;28;20069;-73
2022/06/24 11:02:49;;;;;;;6.03;2.50;;;19.30;99.90;;;;;;4979807;28;20410;-73
2022/06/24 11:05:26;;;;;;;5.20;2.03;;;19.30;99.90;;;;;;4963742;28;20093;-73
2022/06/24 11:07:52;;;;;;;4.82;2.40;;;19.30;99.90;;;;;;4979679;28;20038;-73
2022/06/24 11:10:31;;;;;;;4.28;2.05;;;19.30;99.90;;;;;;4963780;28;20041;-73
2022/06/24 11:13:02;;;;;;;3.83;2.42;;;19.40;99.90;;;;;;4979865;28;20046;-73
2022/06/24 11:15:45;;;;;;;3.45;2.00;;;19.50;99.90;;;;;;4963730;28;20490;-74
2022/06/24 11:18:19;;;;;;;3.95;2.40;;;19.60;99.90;;;;;;4963454;28;20450;-73
2022/06/24 11:21:04;;;;;;;4.07;2.25;;;19.70;99.90;;;;;;4979741;28;20525;-73
2022/06/24 11:23:38;;;;;;;5.00;2.50;;;19.80;99.90;;;;;;4979777;28;20057;-73
2022/06/24 11:26:18;;;;;;;4.70;2.00;;;19.90;99.90;;;;;;4963291;28;20455;-73
2022/06/24 11:28:52;;;;;;;2.80;2.10;;;19.80;99.90;;;;;;4963737;28;20517;-73
2022/06/24 11:31:27;;;;;;;7.15;2.30;;;19.80;99.90;;;;;;4979435;28;20061;-73
2022/06/24 11:33:58;;;;;;;4.72;1.98;;;19.80;99.90;;;;;;4979544;28;20414;-73
2022/06/24 11:36:26;;;;;;;4.32;2.20;;;19.90;99.90;;;;;;4963148;28;20042;-73
2022/06/24 11:39:03;;;;;;;3.33;2.05;;;19.90;99.90;;;;;;4979428;28;20061;-73
2022/06/24 11:41:30;;;;;;;4.25;1.98;;;20.10;99.90;;;;;;4979565;28;20046;-74
2022/06/24 11:43:56;;;;;;;2.78;1.70;;;20.20;99.90;;;;;;4963004;28;20049;-75
2022/06/24 11:46:22;;;;;;;2.78;1.67;;;20.40;99.90;;;;;;4963097;28;20042;-74
2022/06/24 11:48:48;;;;;;;4.85;1.90;;;20.60;99.90;;;;;;4961862;28;20092;-72
2022/06/24 11:51:21;;;;;;;3.35;2.13;;;20.70;99.90;;;;;;4978984;28;20041;-71
2022/06/24 11:53:57;;;;;;;4.20;2.13;;;20.90;99.90;;;;;;4963096;28;20061;-71
2022/06/24 11:56:28;;;;;;;5.15;2.20;;;21.10;99.90;;;;;;4979038;28;20047;-72
2022/06/24 11:59:12;;;;;;;3.63;1.98;;;21.20;99.90;;;;;;4962729;28;20042;-72
2022/06/24 12:01:39;;;;;;;5.03;2.40;;;21.30;99.90;;;;;;4963114;28;20529;-72
2022/06/24 12:04:10;;;;;;;5.55;2.75;;;21.50;99.90;;;;;;4962851;28;20502;-72
2022/06/24 12:06:37;;;;;;;4.18;2.75;;;21.60;99.90;;;;;;4962494;28;20125;-72
2022/06/24 12:09:03;;;;;;;5.43;3.50;;;21.80;99.90;;;;;;4978588;28;20503;-72
2022/06/24 12:11:35;;;;;;;5.40;3.72;;;21.90;99.90;;;;;;4978757;28;20066;-72
2022/06/24 12:14:05;;;;;;;4.40;3.70;;;22.10;99.90;;;;;;4978565;28;20077;-72
2022/06/24 12:17:09;;;;;;;6.75;5.18;;;22.20;99.90;;;;;;4978684;28;20077;-72
2022/06/24 12:19:39;;;;;;;6.47;5.68;;;22.30;99.90;;;;;;4898044;29;20060;-72
2022/06/24 12:22:05;;;;;;;6.95;5.40;;;22.40;99.90;;;;;;4882334;29;20066;-72
2022/06/24 12:24:31;;;;;;;6.70;6.05;;;22.50;99.90;;;;;;4866733;29;20087;-74
2022/06/24 12:26:58;;;;;;;9.70;7.57;;;22.70;99.90;;;;;;4882324;29;20481;-75
2022/06/24 12:29:30;;;;;;;10.07;6.90;;;22.70;99.90;;;;;;4866864;29;20406;-75
2022/06/24 12:31:56;;;;;;;8.15;7.25;;;22.70;99.90;;;;;;4882687;29;20123;-74
2022/06/24 12:34:41;;;;;;;9.60;7.03;;;22.80;99.90;;;;;;4882121;29;20084;-74
2022/06/24 12:37:11;;;;;;;8.52;7.25;;;22.80;99.90;;;;;;4882122;29;20054;-75
2022/06/24 12:39:41;;;;;;;8.68;7.38;;;22.80;99.90;;;;;;4898041;29;20509;-75
2022/06/24 12:42:08;;;;;;;8.30;7.10;;;22.80;99.90;;;;;;4882185;29;20390;-74
2022/06/24 12:44:44;;;;;;;8.35;7.47;;;22.90;99.90;;;;;;4881936;29;20403;-75
2022/06/24 12:52:44;;;;;;;8.18;6.55;;;23.20;99.90;;;;;;4882017;29;20445;-72
2022/06/24 12:55:12;;;;;;;9.70;8.10;;;23.30;99.90;;;;;;4934267;28;20050;-72
2022/06/24 12:57:38;;;;;;;9.80;8.23;;;23.40;99.90;;;;;;4962089;28;20454;-72
2022/06/24 13:00:08;;;;;;;9.00;8.10;;;23.50;99.90;;;;;;4977816;28;20529;-72
2022/06/24 13:02:46;;;;;;;9.02;8.10;;;23.50;99.90;;;;;;4961446;28;20120;-72
2022/06/24 13:05:13;;;;;;;10.60;8.45;;;23.50;99.90;;;;;;4978484;28;20061;-72
2022/06/24 13:07:39;;;;;;;11.20;9.63;;;23.50;99.90;;;;;;4977645;28;20074;-72
2022/06/24 13:10:07;;;;;;;10.90;8.45;;;23.60;99.90;;;;;;4961245;28;20462;-72